createdAt,value
2024-02-17T00:01:57.904Z,12.50
2024-02-17T00:07:03.641Z,12.33
2024-02-17T00:12:10.381Z,12.24
2024-02-17T00:17:16.334Z,12.12
2024-02-17T00:22:22.003Z,12.04
2024-02-17T00:27:27.964Z,11.92
2024-02-17T00:32:34.011Z,11.91
2024-02-17T00:37:39.939Z,11.91
2024-02-17T00:42:45.713Z,12.06
2024-02-17T00:47:51.513Z,12.07
2024-02-17T00:52:57.867Z,12.08
2024-02-17T00:58:03.648Z,12.11
2024-02-17T01:03:11.385Z,12.05
2024-02-17T01:08:17.230Z,11.94
2024-02-17T01:13:23.151Z,11.87
2024-02-17T01:18:29.154Z,11.88
2024-02-17T01:23:35.123Z,11.90
2024-02-17T01:28:41.034Z,11.91
2024-02-17T01:33:48.443Z,11.91
2024-02-17T01:38:54.199Z,11.91
2024-02-17T01:43:59.948Z,11.89
2024-02-17T01:49:06.732Z,11.83
2024-02-17T01:54:13.903Z,11.64
2024-02-17T01:59:20.033Z,11.50
2024-02-17T02:04:26.582Z,11.45
2024-02-17T02:09:32.539Z,11.34
2024-02-17T02:14:38.458Z,11.31
2024-02-17T02:19:45.415Z,11.13
2024-02-17T02:24:53.114Z,10.97
2024-02-17T02:30:00.573Z,10.99
2024-02-17T02:35:07.214Z,11.14
2024-02-17T02:40:13.619Z,11.26
2024-02-17T02:45:19.691Z,11.35
2024-02-17T02:50:25.925Z,11.41
2024-02-17T02:55:31.889Z,11.46
2024-02-17T03:00:38.076Z,11.48
2024-02-17T03:05:44.065Z,11.48
2024-02-17T03:10:50.002Z,11.43
2024-02-17T03:15:56.040Z,11.43
2024-02-17T03:21:02.061Z,11.44
2024-02-17T03:26:08.358Z,11.44
2024-02-17T03:31:14.266Z,11.46
2024-02-17T03:36:21.196Z,11.48
2024-02-17T03:41:27.837Z,11.47
2024-02-17T03:46:33.830Z,11.47
2024-02-17T03:51:39.614Z,11.50
2024-02-17T03:56:45.744Z,11.51
2024-02-17T04:01:55.993Z,11.52
2024-02-17T04:07:01.872Z,11.54
2024-02-17T04:12:08.086Z,11.60
2024-02-17T04:17:13.914Z,11.59
2024-02-17T04:22:19.822Z,11.61
2024-02-17T04:27:25.793Z,11.61
2024-02-17T04:32:31.846Z,11.59
2024-02-17T04:37:37.708Z,11.61
2024-02-17T04:42:43.423Z,11.58
2024-02-17T04:47:49.187Z,11.47
2024-02-17T04:52:54.925Z,11.43
2024-02-17T04:58:00.798Z,11.49
2024-02-17T05:03:08.268Z,11.48
2024-02-17T05:08:14.902Z,11.50
2024-02-17T05:13:20.688Z,11.53
2024-02-17T05:18:26.620Z,11.57
2024-02-17T05:23:32.306Z,11.56
2024-02-17T05:28:37.955Z,11.56
2024-02-17T05:33:43.846Z,11.55
2024-02-17T05:38:49.617Z,11.53
2024-02-17T05:43:55.799Z,11.47
2024-02-17T05:49:01.703Z,11.49
2024-02-17T05:54:08.474Z,11.52
2024-02-17T05:59:17.394Z,11.50
2024-02-17T06:04:23.106Z,11.47
2024-02-17T06:09:28.991Z,11.45
2024-02-17T06:14:34.813Z,11.40
2024-02-17T06:19:58.333Z,11.44
2024-02-17T06:25:04.164Z,11.44
2024-02-17T06:30:12.495Z,11.37
2024-02-17T06:35:18.588Z,11.34
2024-02-17T06:40:24.309Z,11.35
2024-02-17T06:45:30.071Z,11.32
2024-02-17T06:50:35.795Z,11.33
2024-02-17T06:55:41.621Z,11.34
2024-02-17T07:00:47.390Z,11.43
2024-02-17T07:05:53.340Z,11.43
2024-02-17T07:10:59.321Z,11.48
2024-02-17T07:16:05.585Z,11.44
2024-02-17T07:21:11.437Z,11.45
2024-02-17T07:26:17.302Z,11.46
2024-02-17T07:31:22.911Z,11.36
2024-02-17T07:36:28.709Z,11.30
2024-02-17T07:41:34.624Z,11.27
2024-02-17T07:46:40.684Z,11.21
2024-02-17T07:51:47.007Z,11.16
2024-02-17T07:56:52.816Z,11.05
2024-02-17T08:01:58.519Z,11.01
2024-02-17T08:07:04.303Z,11.01
2024-02-17T08:12:12.116Z,11.13
2024-02-17T08:17:17.862Z,11.30
2024-02-17T08:22:23.867Z,11.53
2024-02-17T08:27:29.943Z,11.34
2024-02-17T08:32:36.161Z,11.03
2024-02-17T08:37:42.071Z,10.95
2024-02-17T08:42:48.029Z,10.82
2024-02-17T08:47:53.889Z,10.58
2024-02-17T08:52:59.791Z,10.45
2024-02-17T08:58:05.555Z,10.59
2024-02-17T09:03:12.823Z,10.69
2024-02-17T09:08:18.442Z,10.97
2024-02-17T09:13:24.205Z,10.91
2024-02-17T09:18:30.314Z,10.85
2024-02-17T09:23:36.382Z,10.69
2024-02-17T09:28:42.065Z,10.44
2024-02-17T09:33:48.068Z,10.36
2024-02-17T09:38:54.025Z,10.31
2024-02-17T09:43:59.842Z,10.30
2024-02-17T09:49:09.929Z,10.13
2024-02-17T09:54:17.207Z,10.15
2024-02-17T09:59:23.556Z,9.95
2024-02-17T10:04:29.429Z,9.80
2024-02-17T10:09:37.139Z,9.80
2024-02-17T10:14:43.060Z,9.72
2024-02-17T10:19:49.239Z,9.66
2024-02-17T10:24:58.132Z,9.72
2024-02-17T10:30:12.250Z,9.70
2024-02-17T10:35:18.454Z,9.75
2024-02-17T10:40:26.743Z,9.63
2024-02-17T10:45:32.674Z,9.33
2024-02-17T10:50:46.433Z,9.32
2024-02-17T10:55:56.030Z,9.55
2024-02-17T11:01:02.647Z,9.83
2024-02-17T11:06:11.720Z,10.41
2024-02-17T11:11:30.691Z,10.61
2024-02-17T11:16:38.064Z,10.63
2024-02-17T11:21:44.681Z,10.60
2024-02-17T11:26:52.475Z,10.78
2024-02-17T11:32:07.573Z,10.78
2024-02-17T11:37:15.621Z,10.84
2024-02-17T11:42:24.542Z,10.73
2024-02-17T11:47:31.814Z,10.62
2024-02-17T11:52:39.230Z,10.58
2024-02-17T11:57:47.035Z,10.55
2024-02-17T12:02:53.970Z,10.63
2024-02-17T12:07:59.809Z,10.57
2024-02-17T12:13:07.634Z,10.24
2024-02-17T12:18:15.415Z,10.21
2024-02-17T12:23:22.042Z,10.10
2024-02-17T12:28:28.020Z,9.99
2024-02-17T12:33:34.111Z,9.97
2024-02-17T12:38:40.092Z,9.95
2024-02-17T12:48:58.091Z,9.94
2024-02-17T12:54:05.536Z,9.79
2024-02-17T12:59:11.654Z,9.75
2024-02-17T13:04:17.522Z,9.64
2024-02-17T13:09:23.582Z,9.63
2024-02-17T13:14:29.349Z,9.50
2024-02-17T13:19:35.320Z,9.41
2024-02-17T13:24:42.784Z,9.56
2024-02-17T13:29:48.504Z,9.70
2024-02-17T13:34:54.746Z,9.66
2024-02-17T13:40:00.832Z,9.54
2024-02-17T13:45:09.144Z,9.65
2024-02-17T13:50:17.952Z,9.59
2024-02-17T13:55:24.363Z,9.60
2024-02-17T14:00:30.341Z,9.62
2024-02-17T14:05:36.540Z,9.70
2024-02-17T14:10:42.486Z,9.62
2024-02-17T14:15:49.199Z,9.58
2024-02-17T14:20:57.006Z,9.41
2024-02-17T14:26:02.998Z,9.47
2024-02-17T14:31:08.885Z,9.46
2024-02-17T14:36:14.628Z,9.37
2024-02-17T14:41:20.346Z,9.28
2024-02-17T14:46:26.333Z,9.20
2024-02-17T14:51:33.430Z,9.19
2024-02-17T14:56:39.326Z,9.22
2024-02-17T15:01:45.420Z,9.24
2024-02-17T15:06:51.395Z,9.32
2024-02-17T15:11:59.875Z,9.31
2024-02-17T15:17:06.696Z,9.29
2024-02-17T15:22:12.592Z,9.27
2024-02-17T15:27:19.203Z,9.26
2024-02-17T15:32:26.585Z,9.15
2024-02-17T15:37:32.334Z,9.15
2024-02-17T15:42:38.600Z,9.07
2024-02-17T15:47:46.033Z,9.10
2024-02-17T15:52:52.270Z,8.93
2024-02-17T15:57:58.134Z,8.83
2024-02-17T16:03:04.044Z,8.67
2024-02-17T16:08:11.448Z,8.39
2024-02-17T16:13:19.116Z,8.18
2024-02-17T16:18:27.528Z,8.13
2024-02-17T16:23:33.313Z,8.04
2024-02-17T16:28:39.533Z,7.97
2024-02-17T16:33:46.992Z,7.99
2024-02-17T16:39:13.139Z,7.99
2024-02-17T16:44:23.881Z,7.89
2024-02-17T16:49:29.921Z,7.61
2024-02-17T16:54:36.610Z,7.17
2024-02-17T16:59:42.528Z,6.78
2024-02-17T17:04:49.469Z,6.52
2024-02-17T17:09:56.768Z,6.28
2024-02-17T17:15:04.338Z,6.01
2024-02-17T17:20:11.206Z,5.85
2024-02-17T17:25:18.317Z,5.78
2024-02-17T17:30:25.797Z,5.62
2024-02-17T17:35:31.782Z,5.43
2024-02-17T17:40:37.490Z,5.30
2024-02-17T17:45:44.136Z,5.17
2024-02-17T17:50:50.178Z,5.10
2024-02-17T17:55:58.481Z,5.17
2024-02-17T18:01:04.504Z,5.16
2024-02-17T18:06:11.193Z,5.16
2024-02-17T18:11:16.956Z,5.21
2024-02-17T18:16:22.777Z,5.21
2024-02-17T18:21:28.518Z,5.00
2024-02-17T18:26:35.741Z,5.00
2024-02-17T18:31:41.615Z,5.00
2024-02-17T18:36:47.843Z,5.01
2024-02-17T18:41:53.578Z,5.05
2024-02-17T18:46:59.388Z,5.17
2024-02-17T18:52:05.981Z,5.38
2024-02-17T18:57:11.912Z,5.54
2024-02-17T19:02:17.897Z,5.63
2024-02-17T19:07:23.742Z,5.66
2024-02-17T19:12:29.654Z,5.71
2024-02-17T19:17:35.422Z,5.75
2024-02-17T19:22:41.792Z,5.84
2024-02-17T19:27:47.982Z,5.85
2024-02-17T19:32:53.745Z,5.94
2024-02-17T19:38:00.725Z,6.05
2024-02-17T19:43:08.200Z,6.20
2024-02-17T19:48:14.187Z,6.27
2024-02-17T19:53:19.968Z,6.26
2024-02-17T19:58:25.640Z,6.00
2024-02-17T20:03:31.724Z,5.71
2024-02-17T20:08:37.576Z,5.41
2024-02-17T20:13:43.355Z,5.24
2024-02-17T20:18:51.332Z,5.25
2024-02-17T20:23:57.380Z,5.30
2024-02-17T20:29:03.231Z,5.39
2024-02-17T20:34:09.865Z,5.60
2024-02-17T20:39:16.014Z,5.77
2024-02-17T20:44:22.414Z,5.84
2024-02-17T20:49:28.321Z,5.74
2024-02-17T20:54:34.770Z,5.79
2024-02-17T20:59:42.981Z,5.86
2024-02-17T21:04:49.007Z,5.86
2024-02-17T21:09:55.340Z,5.80
2024-02-17T21:15:01.750Z,5.69
2024-02-17T21:20:08.658Z,5.47
2024-02-17T21:25:15.659Z,5.27
2024-02-17T21:30:22.019Z,5.04
2024-02-17T21:35:27.647Z,4.77
2024-02-17T21:40:34.138Z,4.52
2024-02-17T21:45:39.850Z,4.29
2024-02-17T21:50:45.581Z,4.14
2024-02-17T21:55:51.803Z,4.01
2024-02-17T22:00:58.018Z,3.89
2024-02-17T22:06:04.936Z,3.76
2024-02-17T22:11:11.162Z,3.61
2024-02-17T22:16:17.041Z,3.53
2024-02-17T22:21:27.176Z,3.42
2024-02-17T22:26:32.940Z,3.34
2024-02-17T22:31:39.024Z,3.22
2024-02-17T22:36:44.887Z,3.15
2024-02-17T22:41:53.818Z,3.07
2024-02-17T22:47:00.555Z,3.02
2024-02-17T22:52:06.930Z,2.93
2024-02-17T22:57:14.517Z,2.87
2024-02-17T23:02:20.375Z,2.75
2024-02-17T23:07:26.189Z,2.69
2024-02-17T23:12:32.070Z,2.60
2024-02-17T23:17:39.475Z,2.50
2024-02-17T23:22:45.463Z,2.45
2024-02-17T23:27:51.140Z,2.41
2024-02-17T23:32:57.203Z,2.38
2024-02-17T23:38:03.067Z,2.33
2024-02-17T23:43:09.096Z,2.26
2024-02-17T23:48:15.631Z,2.06
2024-02-17T23:53:21.453Z,2.07
2024-02-17T23:58:27.460Z,1.96
